Montblanc, Spain
Current Conditions -  °F | °C
As of 11:00 AM on Saturday 29 Nov 2014 (Local Time) from LERS Reporting Station
Light Rain Light Rain  
Wind Chill: 63°   Ceiling: Unl
Heat Index: 63°   Visibility: 6mi
Dew Point: 59°   Wind: 14mph
Humidity: 88%   Direction: 70°ENE
Pressure: 29.44"   Gusts: NA
Location:  41.38°N, 1.16°E
Report Text: LERS 291000Z 07012KT 050V130 9000 -RA FEW015 SCT040 17/15 Q0997
Loading
Personal Weather Stations






























Interactive Weather Map New forecast layout! Learn more

10-Day Weather Forecast

Advertisements
Track Severe Weather on mobile